Time;durP1;ratioP1;P1;durP2;ratioP2;P2;SDS_P1;SDS_P2;PMS_P1;PMS_P2;Temp;Humidity;BMP_temperature;BMP_pressure;BME280_temperature;BME280_humidity;BME280_pressure;Samples;Min_cycle;Max_cycle;Signal;HPM_P1;HPM_P2
2024/02/22 00:00:53;;;;;;;1.75;0.75;;;23.10;65.00;;;;;;5096302;28;20395;-61
2024/02/22 00:03:19;;;;;;;1.33;0.70;;;22.90;65.10;;;;;;5099060;28;20076;-61
2024/02/22 00:05:46;;;;;;;1.20;0.98;;;22.90;65.50;;;;;;5112610;28;20075;-64
2024/02/22 00:08:12;;;;;;;2.05;0.40;;;22.80;64.40;;;;;;5110362;28;20072;-62
2024/02/22 00:10:39;;;;;;;3.97;1.00;;;22.80;64.60;;;;;;5095136;28;20166;-63
2024/02/22 00:13:05;;;;;;;1.15;0.60;;;22.80;64.60;;;;;;5091620;28;20060;-60
2024/02/22 00:15:32;;;;;;;2.80;0.85;;;22.80;63.80;;;;;;5110801;28;20076;-59
2024/02/22 00:17:58;;;;;;;0.70;0.50;;;22.90;64.40;;;;;;5112283;28;20478;-61
2024/02/22 00:20:25;;;;;;;6.60;0.50;;;23.00;64.20;;;;;;5112078;28;20077;-62
2024/02/22 00:22:52;;;;;;;2.40;0.65;;;23.20;63.40;;;;;;5112447;28;20060;-60
2024/02/22 00:25:20;;;;;;;6.32;0.82;;;23.40;63.30;;;;;;5109919;28;20561;-62
2024/02/22 00:27:46;;;;;;;2.67;0.52;;;23.40;63.30;;;;;;5104725;28;20128;-61
2024/02/22 00:30:13;;;;;;;1.80;0.50;;;23.30;62.90;;;;;;5112018;28;20091;-59
2024/02/22 00:32:41;;;;;;;0.45;0.30;;;23.10;63.80;;;;;;5111993;28;20073;-60
2024/02/22 00:35:10;;;;;;;3.25;0.50;;;23.10;64.20;;;;;;5109977;28;20085;-59
2024/02/22 00:37:36;;;;;;;1.90;0.50;;;23.00;64.60;;;;;;5110668;28;20121;-60
2024/02/22 00:40:04;;;;;;;0.68;0.47;;;23.00;65.00;;;;;;5107021;28;20089;-59
2024/02/22 00:42:33;;;;;;;5.78;0.70;;;23.00;65.30;;;;;;5091783;28;20433;-59
2024/02/22 00:45:00;;;;;;;7.78;0.75;;;22.80;64.70;;;;;;5094307;28;20075;-62
2024/02/22 00:47:27;;;;;;;1.55;0.77;;;22.80;65.60;;;;;;5111100;28;20100;-58
2024/02/22 00:49:53;;;;;;;3.15;0.57;;;22.70;65.30;;;;;;5111951;28;20496;-61
2024/02/22 00:52:19;;;;;;;4.22;0.68;;;22.70;64.80;;;;;;5109849;28;20433;-61
2024/02/22 00:54:46;;;;;;;5.60;0.70;;;22.60;65.30;;;;;;5112398;28;20470;-61
2024/02/22 00:57:12;;;;;;;4.50;0.50;;;22.50;65.70;;;;;;5108717;28;20064;-60
2024/02/22 00:59:39;;;;;;;2.30;0.57;;;22.40;65.90;;;;;;5100847;28;20099;-60
2024/02/22 01:02:05;;;;;;;3.63;0.98;;;22.40;66.10;;;;;;5100579;28;20108;-63
2024/02/22 01:04:32;;;;;;;7.45;1.00;;;22.40;65.90;;;;;;5108957;28;20072;-61
2024/02/22 01:06:59;;;;;;;3.00;1.08;;;22.30;65.50;;;;;;5094171;28;20151;-61
2024/02/22 01:09:26;;;;;;;2.72;0.88;;;22.30;65.90;;;;;;5103281;28;20080;-61
2024/02/22 01:11:53;;;;;;;6.55;1.30;;;22.20;66.10;;;;;;5111824;28;20102;-60
2024/02/22 01:14:20;;;;;;;4.28;1.30;;;22.20;66.90;;;;;;5108054;28;20075;-59
2024/02/22 01:16:50;;;;;;;2.13;1.00;;;22.00;66.20;;;;;;5103618;28;20080;-57
2024/02/22 01:19:17;;;;;;;13.27;8.57;;;21.90;65.60;;;;;;5102831;27;20104;-64
2024/02/22 01:21:44;;;;;;;5.00;1.52;;;21.90;66.70;;;;;;5099788;28;20092;-62
2024/02/22 01:24:11;;;;;;;5.90;2.35;;;21.80;67.10;;;;;;5102378;28;20113;-64
2024/02/22 01:26:37;;;;;;;8.23;5.72;;;21.70;67.20;;;;;;5104292;28;20530;-60
2024/02/22 01:29:04;;;;;;;12.13;1.60;;;21.60;67.10;;;;;;5097697;28;20123;-61
2024/02/22 01:31:31;;;;;;;12.43;1.80;;;21.60;67.10;;;;;;5098799;28;20068;-60
2024/02/22 01:33:57;;;;;;;10.38;1.73;;;21.50;67.30;;;;;;5099993;28;20414;-60
2024/02/22 01:36:24;;;;;;;17.40;2.03;;;21.40;67.50;;;;;;5101781;28;20093;-59
2024/02/22 01:38:50;;;;;;;5.80;1.80;;;21.40;67.80;;;;;;5100773;28;20112;-59
2024/02/22 01:41:17;;;;;;;5.45;1.55;;;21.30;67.70;;;;;;5099927;28;20073;-59
2024/02/22 01:43:43;;;;;;;8.55;2.13;;;21.30;67.60;;;;;;5098600;28;20157;-61
2024/02/22 01:46:11;;;;;;;15.52;2.15;;;21.20;67.70;;;;;;5098259;28;20092;-60
2024/02/22 01:48:38;;;;;;;13.93;3.15;;;21.20;68.00;;;;;;5096368;28;20072;-60
2024/02/22 01:51:06;;;;;;;17.55;1.88;;;21.10;68.10;;;;;;5096147;28;20125;-60
2024/02/22 01:53:33;;;;;;;8.98;2.00;;;21.10;68.00;;;;;;5107592;28;20070;-61
2024/02/22 01:56:01;;;;;;;6.15;1.70;;;21.00;68.20;;;;;;5106181;28;20155;-60
2024/02/22 01:58:37;;;;;;;12.18;2.22;;;21.00;68.30;;;;;;5103402;28;20131;-59
2024/02/22 02:01:04;;;;;;;8.90;2.00;;;20.90;68.60;;;;;;5097557;28;20111;-59
2024/02/22 02:03:32;;;;;;;10.05;1.98;;;20.90;68.80;;;;;;5098738;28;20145;-62
2024/02/22 02:06:00;;;;;;;7.93;2.40;;;20.80;68.70;;;;;;5098060;28;20072;-60
2024/02/22 02:08:26;;;;;;;8.43;2.47;;;20.80;69.00;;;;;;5111577;28;20530;-60
2024/02/22 02:10:53;;;;;;;11.77;2.35;;;20.70;69.20;;;;;;5110891;28;20091;-61
2024/02/22 02:13:19;;;;;;;3.97;1.52;;;20.70;69.50;;;;;;5094924;28;20108;-61
2024/02/22 02:15:46;;;;;;;12.40;2.13;;;20.70;69.50;;;;;;5098540;28;20528;-61
2024/02/22 02:18:12;;;;;;;11.02;1.73;;;20.60;69.60;;;;;;5101863;28;20452;-60
2024/02/22 02:21:03;;;;;;;15.60;2.45;;;20.60;69.50;;;;;;5100645;28;20072;-60
2024/02/22 02:23:58;;;;;;;8.52;2.40;;;20.50;69.80;;;;;;5095714;28;20118;-61
2024/02/22 02:26:24;;;;;;;11.20;2.70;;;20.50;69.90;;;;;;5099278;28;20102;-61
2024/02/22 02:28:51;;;;;;;7.88;2.30;;;20.40;70.20;;;;;;5091679;28;20091;-60
2024/02/22 02:31:17;;;;;;;8.93;3.67;;;20.40;70.40;;;;;;5090409;28;20064;-60
2024/02/22 02:33:44;;;;;;;11.13;3.42;;;20.30;70.60;;;;;;5103278;28;20076;-61
2024/02/22 02:36:11;;;;;;;10.65;2.83;;;20.30;70.80;;;;;;5105211;28;20068;-61
2024/02/22 02:38:37;;;;;;;7.40;2.28;;;20.30;70.90;;;;;;5111645;28;20092;-58
2024/02/22 02:41:04;;;;;;;9.30;2.95;;;20.20;70.90;;;;;;5103264;28;20103;-59
2024/02/22 02:43:30;;;;;;;12.80;2.90;;;20.20;71.20;;;;;;5105379;28;20117;-60
2024/02/22 02:45:57;;;;;;;10.57;3.75;;;20.20;71.50;;;;;;5106105;28;20396;-61
2024/02/22 02:48:23;;;;;;;14.15;4.85;;;20.20;71.50;;;;;;5102627;28;20075;-60
2024/02/22 02:50:50;;;;;;;13.00;2.65;;;20.10;71.60;;;;;;5096243;28;20125;-59
2024/02/22 02:53:17;;;;;;;16.73;2.45;;;20.10;71.90;;;;;;5094338;28;20075;-60
2024/02/22 02:55:44;;;;;;;20.25;2.70;;;20.10;72.20;;;;;;5098911;28;20096;-61
2024/02/22 02:58:10;;;;;;;11.38;2.63;;;20.00;72.30;;;;;;5107277;28;20108;-60
2024/02/22 03:00:36;;;;;;;12.52;3.08;;;19.90;72.70;;;;;;5099847;28;20087;-59
2024/02/22 03:03:03;;;;;;;14.85;3.00;;;19.90;72.90;;;;;;5094439;28;20151;-60
2024/02/22 03:05:30;;;;;;;16.70;3.25;;;19.80;73.20;;;;;;5099965;28;21510;-60
2024/02/22 03:07:56;;;;;;;12.88;2.90;;;19.80;73.60;;;;;;5110575;28;20072;-62
2024/02/22 03:10:23;;;;;;;14.50;2.78;;;19.80;73.60;;;;;;5096249;28;20164;-62
2024/02/22 03:12:51;;;;;;;11.13;2.35;;;19.70;74.00;;;;;;5091568;28;20432;-59
2024/02/22 03:15:18;;;;;;;16.75;3.05;;;19.70;74.00;;;;;;5104006;28;20111;-59
2024/02/22 03:17:44;;;;;;;14.55;2.58;;;19.60;74.20;;;;;;5102561;28;21070;-61
2024/02/22 03:20:11;;;;;;;14.70;3.25;;;19.60;74.60;;;;;;5089518;28;20233;-60
2024/02/22 03:22:39;;;;;;;14.45;3.38;;;19.60;75.00;;;;;;5089810;28;20110;-60
2024/02/22 03:25:07;;;;;;;17.27;3.33;;;19.50;75.10;;;;;;5099720;28;20163;-61
2024/02/22 03:27:34;;;;;;;13.60;3.03;;;19.50;75.40;;;;;;5096637;28;20098;-61
2024/02/22 03:30:03;;;;;;;13.65;3.05;;;19.40;75.50;;;;;;5107970;28;20076;-60
2024/02/22 03:32:30;;;;;;;10.48;2.38;;;19.40;75.80;;;;;;5101144;28;20072;-59
2024/02/22 03:34:58;;;;;;;14.65;3.20;;;19.40;75.70;;;;;;5109598;28;20068;-60
2024/02/22 03:37:24;;;;;;;13.25;3.42;;;19.40;75.80;;;;;;5095449;28;20115;-61
2024/02/22 03:39:51;;;;;;;16.55;3.30;;;19.30;76.10;;;;;;5098595;28;20095;-61
2024/02/22 03:42:17;;;;;;;14.23;2.92;;;19.30;76.30;;;;;;5106800;28;20107;-61
2024/02/22 03:44:44;;;;;;;11.70;3.08;;;19.20;76.30;;;;;;5098828;28;20076;-64
2024/02/22 03:47:11;;;;;;;22.88;4.25;;;19.30;76.30;;;;;;5092716;28;20104;-60
2024/02/22 03:49:38;;;;;;;16.15;3.55;;;19.30;76.50;;;;;;5104749;28;20075;-58
2024/02/22 03:52:07;;;;;;;15.20;3.35;;;19.30;76.70;;;;;;5104199;28;20072;-60
2024/02/22 03:54:37;;;;;;;17.77;4.40;;;19.20;76.70;;;;;;5110373;28;20148;-65
2024/02/22 03:57:04;;;;;;;17.33;4.88;;;19.20;76.90;;;;;;5096378;28;20080;-59
2024/02/22 03:59:31;;;;;;;18.38;7.10;;;19.10;76.90;;;;;;5093040;28;20131;-61
2024/02/22 04:01:57;;;;;;;14.48;5.00;;;19.10;77.00;;;;;;5095944;28;20211;-60
2024/02/22 04:04:24;;;;;;;16.15;4.20;;;19.10;77.10;;;;;;5092930;28;20096;-59
2024/02/22 04:06:50;;;;;;;21.23;3.65;;;19.10;77.40;;;;;;5103018;28;20064;-60
2024/02/22 04:09:17;;;;;;;11.20;4.25;;;19.10;77.60;;;;;;5103915;28;20068;-61
2024/02/22 04:11:43;;;;;;;22.20;4.60;;;19.00;77.60;;;;;;5104500;28;20147;-60
2024/02/22 04:14:10;;;;;;;10.70;3.15;;;19.00;77.90;;;;;;5102944;28;20143;-59
2024/02/22 04:16:36;;;;;;;9.50;3.00;;;19.00;77.70;;;;;;5099077;28;20076;-61
2024/02/22 04:19:03;;;;;;;7.97;3.13;;;18.90;77.70;;;;;;5096265;28;20099;-60
2024/02/22 04:21:29;;;;;;;10.80;3.60;;;18.90;77.80;;;;;;5106508;28;20072;-59
2024/02/22 04:23:56;;;;;;;12.32;3.78;;;18.80;78.10;;;;;;5104814;28;20060;-60
2024/02/22 04:26:23;;;;;;;12.82;4.15;;;18.80;78.20;;;;;;5101089;28;20155;-62
2024/02/22 04:28:49;;;;;;;14.65;3.30;;;18.80;78.20;;;;;;5101819;28;20083;-59
2024/02/22 04:31:16;;;;;;;8.00;3.03;;;18.80;78.40;;;;;;5096884;28;20092;-59
2024/02/22 04:33:42;;;;;;;9.35;2.20;;;18.70;78.50;;;;;;5103882;28;20158;-60
2024/02/22 04:36:09;;;;;;;7.78;2.13;;;18.70;78.80;;;;;;5093764;28;20069;-60
2024/02/22 04:38:35;;;;;;;10.82;1.83;;;18.70;78.90;;;;;;5096387;28;20088;-59
2024/02/22 04:41:05;;;;;;;9.32;1.83;;;18.60;79.00;;;;;;5100290;28;20514;-60
2024/02/22 04:43:31;;;;;;;7.85;1.85;;;18.60;79.20;;;;;;5097380;28;20073;-60
2024/02/22 04:45:57;;;;;;;9.93;3.30;;;18.60;79.30;;;;;;5095007;28;20060;-60
2024/02/22 04:48:24;;;;;;;9.98;3.90;;;18.50;79.30;;;;;;5105254;28;20571;-59
2024/02/22 04:50:50;;;;;;;9.00;3.33;;;18.50;79.50;;;;;;5105555;28;20072;-60
2024/02/22 04:53:17;;;;;;;9.88;3.20;;;18.50;79.80;;;;;;5100435;28;20111;-60
2024/02/22 04:55:43;;;;;;;8.77;2.53;;;18.40;80.00;;;;;;5105471;28;20078;-60
2024/02/22 04:58:10;;;;;;;10.38;3.33;;;18.40;80.30;;;;;;5104630;28;20128;-60
2024/02/22 05:00:38;;;;;;;7.13;3.28;;;18.30;80.70;;;;;;5103698;28;20123;-60
2024/02/22 05:03:04;;;;;;;8.18;3.25;;;18.30;81.00;;;;;;5104266;28;20225;-60
2024/02/22 05:05:31;;;;;;;15.00;3.90;;;18.30;81.10;;;;;;5103854;28;20080;-61
2024/02/22 05:07:57;;;;;;;9.93;3.78;;;18.20;81.30;;;;;;5098238;28;20072;-59
2024/02/22 05:10:24;;;;;;;9.70;3.38;;;18.20;81.60;;;;;;5091479;28;20157;-60
2024/02/22 05:12:51;;;;;;;10.15;4.38;;;18.20;81.90;;;;;;5102123;28;20064;-60
2024/02/22 05:15:18;;;;;;;6.20;2.17;;;18.10;82.30;;;;;;5111775;28;20117;-59
2024/02/22 05:17:44;;;;;;;7.05;1.65;;;18.00;82.60;;;;;;5105339;28;20178;-60
2024/02/22 05:20:11;;;;;;;7.20;1.75;;;18.00;82.90;;;;;;5107357;28;20092;-61
2024/02/22 05:22:38;;;;;;;3.90;1.80;;;18.00;83.20;;;;;;5107411;28;20406;-60
2024/02/22 05:25:08;;;;;;;4.00;1.58;;;17.90;83.60;;;;;;5093768;28;20073;-60
2024/02/22 05:27:35;;;;;;;5.90;1.80;;;17.90;83.90;;;;;;5106084;28;20098;-60
2024/02/22 05:30:03;;;;;;;5.65;2.90;;;17.80;84.20;;;;;;5100190;28;20069;-60
2024/02/22 05:32:31;;;;;;;9.60;1.65;;;17.70;84.60;;;;;;5092419;28;20150;-61
2024/02/22 05:34:57;;;;;;;6.22;1.73;;;17.70;85.00;;;;;;5097674;28;20069;-60
2024/02/22 05:37:24;;;;;;;4.65;1.65;;;17.70;85.20;;;;;;5107839;28;20068;-61
2024/02/22 05:39:50;;;;;;;6.53;2.15;;;17.60;85.50;;;;;;5097130;28;20564;-60
2024/02/22 05:42:17;;;;;;;4.65;1.80;;;17.60;85.80;;;;;;5093217;28;20140;-60
2024/02/22 05:44:43;;;;;;;7.53;1.52;;;17.60;86.20;;;;;;5115096;28;20064;-60
2024/02/22 05:47:10;;;;;;;6.45;1.70;;;17.50;86.10;;;;;;5115203;28;20060;-60
2024/02/22 05:49:38;;;;;;;9.10;1.98;;;17.50;86.60;;;;;;5115431;28;20402;-59
2024/02/22 05:52:04;;;;;;;6.45;2.22;;;17.40;86.80;;;;;;5115458;28;20068;-60
2024/02/22 05:54:31;;;;;;;12.52;2.00;;;17.40;87.00;;;;;;5112777;28;20094;-60
2024/02/22 05:56:57;;;;;;;10.45;2.00;;;17.30;87.90;;;;;;5112880;28;20072;-60
2024/02/22 05:59:24;;;;;;;8.70;4.85;;;17.20;88.30;;;;;;5112750;28;20100;-59
2024/02/22 06:01:50;;;;;;;7.00;1.85;;;17.20;88.80;;;;;;5096208;28;20139;-59
2024/02/22 06:04:18;;;;;;;3.97;1.73;;;17.20;89.00;;;;;;5091479;28;20073;-60
2024/02/22 06:06:44;;;;;;;7.18;1.30;;;17.20;89.10;;;;;;5100694;28;20068;-59
2024/02/22 06:09:11;;;;;;;5.05;1.50;;;17.20;89.20;;;;;;5104175;28;20068;-60
2024/02/22 06:11:38;;;;;;;9.57;1.83;;;17.10;89.50;;;;;;5095950;28;20060;-60
2024/02/22 06:14:04;;;;;;;9.20;1.30;;;17.10;89.80;;;;;;5102917;28;20069;-61
2024/02/22 06:16:31;;;;;;;5.47;1.33;;;17.10;90.00;;;;;;5093980;28;20099;-61
2024/02/22 06:18:58;;;;;;;6.78;1.50;;;17.10;90.20;;;;;;5094201;28;20187;-60
2024/02/22 06:21:24;;;;;;;5.10;1.30;;;17.10;90.40;;;;;;5108796;28;20072;-59
2024/02/22 06:23:51;;;;;;;5.38;1.55;;;17.00;90.50;;;;;;5097773;28;20076;-60
2024/02/22 06:26:17;;;;;;;5.50;1.80;;;17.00;90.70;;;;;;5100036;28;20067;-60
2024/02/22 06:28:44;;;;;;;6.63;2.00;;;17.00;90.80;;;;;;5094451;27;20076;-61
2024/02/22 06:31:10;;;;;;;21.58;15.05;;;16.90;90.90;;;;;;5097072;28;20093;-59
2024/02/22 06:33:39;;;;;;;21.90;13.98;;;16.90;90.80;;;;;;5090056;28;20099;-60
2024/02/22 06:36:09;;;;;;;13.50;8.25;;;16.90;91.10;;;;;;5098871;28;20068;-60
2024/02/22 06:38:45;;;;;;;17.98;9.27;;;16.80;91.20;;;;;;5095108;28;20499;-60
2024/02/22 06:41:13;;;;;;;14.45;3.63;;;16.80;91.40;;;;;;5089717;28;20080;-60
2024/02/22 06:43:39;;;;;;;5.85;2.35;;;16.70;91.50;;;;;;5096211;28;20080;-60
2024/02/22 06:46:11;;;;;;;5.38;1.75;;;16.70;91.60;;;;;;5106031;28;20091;-61
2024/02/22 06:48:37;;;;;;;5.32;1.58;;;16.70;91.50;;;;;;5098963;27;20263;-60
2024/02/22 06:51:04;;;;;;;7.82;1.60;;;16.70;91.50;;;;;;5088668;28;20077;-60
2024/02/22 06:53:31;;;;;;;4.05;1.65;;;16.70;91.60;;;;;;5097319;28;20075;-59
2024/02/22 06:55:57;;;;;;;6.07;1.80;;;16.70;91.60;;;;;;5101181;28;20627;-59
2024/02/22 06:58:23;;;;;;;10.52;2.30;;;16.80;91.60;;;;;;5103955;28;20106;-60
2024/02/22 07:00:50;;;;;;;8.20;2.13;;;16.70;91.50;;;;;;5089149;28;20079;-60
2024/02/22 07:03:38;;;;;;;8.45;2.63;;;16.70;91.60;;;;;;5091139;28;20068;-60
2024/02/22 07:06:16;;;;;;;6.63;2.60;;;16.60;91.50;;;;;;5086296;28;20084;-60
2024/02/22 07:08:43;;;;;;;8.93;2.25;;;16.60;91.70;;;;;;5090380;28;20079;-60
2024/02/22 07:11:13;;;;;;;10.25;2.25;;;16.70;91.60;;;;;;5094117;28;20076;-60
2024/02/22 07:13:40;;;;;;;8.60;2.10;;;16.60;91.60;;;;;;5091285;28;20125;-60
2024/02/22 07:16:07;;;;;;;10.85;2.20;;;16.70;91.90;;;;;;5094113;28;20099;-59
2024/02/22 07:18:34;;;;;;;6.65;1.83;;;16.60;91.90;;;;;;5101078;28;20099;-60
2024/02/22 07:21:02;;;;;;;7.72;1.77;;;16.60;91.90;;;;;;5101958;28;20159;-59
2024/02/22 07:23:29;;;;;;;6.40;1.80;;;16.60;91.90;;;;;;5102664;28;20103;-60
2024/02/22 07:25:55;;;;;;;8.18;2.03;;;16.60;92.20;;;;;;5098043;28;20097;-59
2024/02/22 07:28:23;;;;;;;7.93;2.22;;;16.50;92.40;;;;;;5109606;28;20841;-61
2024/02/22 07:30:49;;;;;;;10.40;3.90;;;16.50;92.60;;;;;;5097079;28;20072;-60
2024/02/22 07:33:16;;;;;;;8.80;2.10;;;16.50;93.00;;;;;;5090183;28;20122;-60
2024/02/22 07:35:43;;;;;;;9.48;1.90;;;16.40;92.60;;;;;;5100437;28;20137;-59
2024/02/22 07:38:10;;;;;;;7.85;2.10;;;16.20;92.70;;;;;;5095423;28;20557;-60
2024/02/22 07:40:36;;;;;;;9.82;2.15;;;16.20;93.20;;;;;;5088664;28;20072;-61
2024/02/22 07:43:04;;;;;;;5.60;1.92;;;16.10;93.70;;;;;;5098562;28;20121;-59
2024/02/22 07:45:31;;;;;;;8.02;1.90;;;16.10;93.90;;;;;;5108058;28;20110;-59
2024/02/22 07:47:58;;;;;;;10.05;2.10;;;16.10;93.90;;;;;;5089461;28;20110;-60
2024/02/22 07:50:28;;;;;;;10.65;1.77;;;16.00;93.90;;;;;;5104762;28;20159;-60
2024/02/22 07:52:54;;;;;;;5.40;1.73;;;15.90;94.30;;;;;;5096753;28;20151;-59
2024/02/22 07:55:21;;;;;;;12.32;2.15;;;16.00;94.70;;;;;;5109666;28;20070;-60
2024/02/22 07:57:47;;;;;;;9.90;2.22;;;16.00;94.60;;;;;;5106669;28;20108;-59
2024/02/22 08:00:16;;;;;;;6.68;2.20;;;16.00;95.00;;;;;;5107883;28;20068;-59
2024/02/22 08:02:42;;;;;;;9.35;2.30;;;15.90;95.10;;;;;;5095383;28;20104;-60
2024/02/22 08:05:09;;;;;;;10.13;3.10;;;15.80;95.00;;;;;;5100338;28;20425;-59
2024/02/22 08:07:37;;;;;;;10.57;3.38;;;15.70;95.20;;;;;;5106560;28;20083;-60
2024/02/22 08:10:05;;;;;;;9.63;2.70;;;15.70;95.30;;;;;;5106049;28;20121;-59
2024/02/22 08:12:32;;;;;;;8.63;2.30;;;15.80;95.50;;;;;;5099275;28;20536;-60
2024/02/22 08:14:59;;;;;;;5.22;2.22;;;15.70;95.60;;;;;;5098219;28;20524;-61
2024/02/22 08:17:26;;;;;;;7.60;2.53;;;15.60;95.80;;;;;;5110361;28;20162;-58
2024/02/22 08:19:52;;;;;;;5.95;1.67;;;15.60;96.10;;;;;;5104967;28;20107;-58
2024/02/22 08:22:19;;;;;;;4.75;1.65;;;15.50;96.30;;;;;;5089091;28;20091;-60
2024/02/22 08:24:46;;;;;;;6.68;1.83;;;15.40;96.50;;;;;;5110010;28;20078;-60
2024/02/22 08:27:12;;;;;;;6.10;1.90;;;15.40;96.70;;;;;;5109348;28;20072;-60
2024/02/22 08:29:39;;;;;;;12.35;1.98;;;15.40;97.10;;;;;;5106916;27;20160;-59
2024/02/22 08:32:06;;;;;;;4.80;2.05;;;15.40;97.30;;;;;;5094948;28;20072;-60
2024/02/22 08:34:32;;;;;;;6.43;1.70;;;15.40;97.50;;;;;;5104429;28;20556;-58
2024/02/22 08:36:59;;;;;;;16.00;8.20;;;15.30;97.70;;;;;;5097175;28;20069;-58
2024/02/22 08:39:25;;;;;;;24.35;16.85;;;15.30;98.40;;;;;;5098309;28;20110;-58
2024/02/22 08:41:51;;;;;;;31.35;18.20;;;15.30;98.20;;;;;;5105664;28;20083;-59
2024/02/22 08:44:18;;;;;;;16.50;11.60;;;15.20;98.30;;;;;;5099241;28;20119;-61
2024/02/22 08:46:44;;;;;;;5.60;1.40;;;15.10;98.70;;;;;;5099069;28;20158;-60
2024/02/22 08:49:12;;;;;;;8.00;1.10;;;15.20;99.00;;;;;;5088463;28;20426;-59
2024/02/22 08:51:38;;;;;;;7.13;1.67;;;15.20;99.00;;;;;;5089496;28;20069;-59
2024/02/22 08:54:05;;;;;;;7.13;1.63;;;15.20;99.00;;;;;;5092581;28;20064;-60
2024/02/22 08:56:31;;;;;;;4.72;1.40;;;15.10;99.40;;;;;;5090458;28;21624;-59
2024/02/22 08:58:58;;;;;;;13.60;1.67;;;15.20;99.30;;;;;;5097503;28;20103;-59
2024/02/22 09:01:24;;;;;;;5.30;1.20;;;15.10;99.40;;;;;;5098921;28;20466;-59
2024/02/22 09:03:51;;;;;;;6.43;1.50;;;15.10;99.50;;;;;;5089306;28;20438;-60
2024/02/22 09:06:18;;;;;;;5.93;1.40;;;15.10;99.50;;;;;;5108901;28;20075;-59
2024/02/22 09:08:44;;;;;;;5.32;1.50;;;15.00;99.80;;;;;;5108596;28;20235;-60
2024/02/22 09:11:12;;;;;;;10.43;1.30;;;15.10;99.90;;;;;;5108809;28;20068;-60
2024/02/22 09:13:38;;;;;;;3.78;1.25;;;15.00;99.90;;;;;;5105415;28;20190;-59
2024/02/22 09:16:08;;;;;;;7.20;1.40;;;15.10;99.90;;;;;;5105373;28;20122;-58
2024/02/22 09:18:35;;;;;;;3.15;1.27;;;15.10;99.90;;;;;;5109298;28;20542;-59
2024/02/22 09:21:01;;;;;;;5.13;1.90;;;15.10;99.90;;;;;;5104649;28;20099;-60
2024/02/22 09:23:29;;;;;;;7.95;1.52;;;15.10;99.90;;;;;;5101820;28;20403;-60
2024/02/22 09:25:56;;;;;;;4.72;1.40;;;15.00;99.90;;;;;;5099145;28;20068;-60
2024/02/22 09:28:23;;;;;;;7.30;1.67;;;15.00;99.90;;;;;;5108964;28;20075;-60
2024/02/22 09:30:51;;;;;;;6.18;1.30;;;15.00;99.90;;;;;;5107710;28;20533;-60
2024/02/22 09:33:17;;;;;;;3.92;1.02;;;14.90;99.90;;;;;;5102357;28;20068;-60
2024/02/22 09:35:46;;;;;;;3.47;0.95;;;14.90;99.90;;;;;;5111751;28;20159;-59
2024/02/22 09:38:12;;;;;;;8.00;1.10;;;14.90;99.90;;;;;;5102078;28;20115;-60
2024/02/22 09:40:39;;;;;;;2.25;0.95;;;15.00;99.90;;;;;;5105774;28;20082;-60
2024/02/22 09:43:05;;;;;;;3.15;0.90;;;15.00;99.90;;;;;;5102571;28;20080;-59
2024/02/22 09:45:32;;;;;;;2.03;0.90;;;15.00;99.90;;;;;;5105636;28;20064;-59
2024/02/22 09:48:00;;;;;;;1.40;0.80;;;14.90;99.90;;;;;;5090973;28;20108;-59
2024/02/22 09:50:27;;;;;;;4.07;1.17;;;15.00;99.90;;;;;;5109954;28;20068;-59
2024/02/22 09:52:54;;;;;;;3.15;1.05;;;14.90;99.90;;;;;;5096652;27;20072;-59
2024/02/22 09:55:21;;;;;;;3.78;1.13;;;15.00;99.90;;;;;;5111758;28;20072;-60
2024/02/22 09:57:52;;;;;;;1.60;1.00;;;14.90;99.90;;;;;;5110662;28;20159;-61
2024/02/22 10:00:18;;;;;;;3.45;0.88;;;15.00;99.90;;;;;;5091797;28;20119;-60
2024/02/22 10:02:47;;;;;;;3.97;1.05;;;15.00;99.90;;;;;;5110920;28;20576;-61
2024/02/22 10:05:14;;;;;;;1.35;0.90;;;15.00;99.90;;;;;;5111210;28;20076;-59
2024/02/22 10:07:40;;;;;;;1.52;0.73;;;15.00;99.90;;;;;;5098894;28;20072;-59
2024/02/22 10:10:08;;;;;;;3.35;0.90;;;15.00;99.90;;;;;;5107559;28;20080;-59
2024/02/22 10:12:35;;;;;;;2.13;0.77;;;15.00;99.90;;;;;;5102920;28;20072;-60
2024/02/22 10:15:08;;;;;;;3.92;1.20;;;15.00;99.90;;;;;;5099828;28;20080;-62
2024/02/22 10:17:37;;;;;;;2.72;1.08;;;15.00;99.90;;;;;;5105153;28;20146;-59
2024/02/22 10:20:09;;;;;;;2.38;1.10;;;15.00;99.90;;;;;;5107504;28;20097;-59
2024/02/22 10:22:39;;;;;;;3.42;1.08;;;15.00;99.90;;;;;;5099017;28;20100;-59
2024/02/22 10:25:12;;;;;;;4.45;1.10;;;15.00;99.90;;;;;;5104948;28;20068;-60
2024/02/22 10:27:41;;;;;;;2.33;0.80;;;15.00;99.90;;;;;;5091053;28;20125;-58
2024/02/22 10:30:09;;;;;;;6.28;1.33;;;15.00;99.90;;;;;;5096683;28;20198;-60
2024/02/22 10:32:42;;;;;;;2.83;0.77;;;14.90;99.90;;;;;;5105825;28;20075;-59
2024/02/22 10:35:12;;;;;;;2.63;0.90;;;14.90;99.90;;;;;;5107182;28;20374;-59
2024/02/22 10:37:39;;;;;;;8.20;1.00;;;14.90;99.90;;;;;;5096147;28;20463;-60
2024/02/22 10:40:09;;;;;;;3.63;1.10;;;14.90;99.90;;;;;;5108651;28;20147;-60
2024/02/22 10:42:35;;;;;;;8.00;1.08;;;14.90;99.90;;;;;;5110981;28;20144;-59
2024/02/22 10:45:02;;;;;;;2.47;0.90;;;14.90;99.90;;;;;;5102003;28;20064;-58
2024/02/22 10:47:29;;;;;;;4.88;0.80;;;14.90;99.90;;;;;;5103939;28;20096;-59
2024/02/22 10:49:59;;;;;;;4.90;1.00;;;14.90;99.90;;;;;;5099850;28;20079;-60
2024/02/22 10:52:26;;;;;;;4.25;1.20;;;14.90;99.90;;;;;;5098000;28;20578;-60
2024/02/22 10:54:56;;;;;;;6.07;1.05;;;14.90;99.90;;;;;;5098901;28;20080;-60
2024/02/22 10:57:27;;;;;;;5.65;1.13;;;14.70;99.90;;;;;;5090195;28;20080;-60
2024/02/22 10:59:56;;;;;;;2.17;0.90;;;14.70;99.90;;;;;;5102629;28;20520;-60
2024/02/22 11:02:23;;;;;;;3.85;0.98;;;14.70;99.90;;;;;;5098927;28;20111;-60
2024/02/22 11:04:49;;;;;;;7.00;1.25;;;14.60;99.90;;;;;;5091305;28;20075;-60
2024/02/22 11:07:19;;;;;;;8.13;1.10;;;14.60;99.90;;;;;;5098935;28;20572;-60
2024/02/22 11:09:49;;;;;;;4.82;1.40;;;14.50;99.90;;;;;;5110404;28;20488;-60
2024/02/22 11:12:15;;;;;;;3.60;1.40;;;14.40;99.90;;;;;;5109547;28;20064;-60
2024/02/22 11:14:42;;;;;;;6.70;1.42;;;14.30;99.90;;;;;;5105850;28;20137;-59
2024/02/22 11:17:18;;;;;;;5.38;1.42;;;14.30;99.90;;;;;;5097069;28;20071;-59
2024/02/22 11:19:45;;;;;;;5.22;1.65;;;14.20;99.90;;;;;;5096757;28;20092;-60
2024/02/22 11:22:16;;;;;;;7.25;1.42;;;14.20;99.90;;;;;;5093847;28;20568;-59
2024/02/22 11:24:43;;;;;;;3.58;1.25;;;14.10;99.90;;;;;;5110259;28;20430;-59
2024/02/22 11:27:19;;;;;;;7.43;1.80;;;14.00;99.90;;;;;;5105561;28;20155;-59
2024/02/22 11:29:46;;;;;;;4.57;1.52;;;13.90;99.90;;;;;;5102336;28;20126;-59
2024/02/22 11:32:13;;;;;;;5.47;1.70;;;13.90;99.90;;;;;;5090085;28;20071;-59
2024/02/22 11:34:40;;;;;;;4.20;1.50;;;13.80;99.90;;;;;;5106097;28;20068;-59
2024/02/22 11:37:17;;;;;;;7.15;2.15;;;13.80;99.90;;;;;;5103174;28;20068;-59
2024/02/22 11:39:44;;;;;;;9.68;2.72;;;13.80;99.90;;;;;;5103965;28;20132;-59
2024/02/22 11:42:15;;;;;;;11.23;2.45;;;13.70;99.90;;;;;;5110223;28;20455;-59
2024/02/22 11:44:45;;;;;;;11.65;2.70;;;13.60;99.90;;;;;;5111292;28;20213;-59
2024/02/22 11:47:15;;;;;;;14.55;3.20;;;13.70;99.90;;;;;;5101688;28;20448;-59
2024/02/22 11:49:43;;;;;;;10.07;3.08;;;13.70;99.90;;;;;;5102803;28;20122;-59
2024/02/22 11:52:10;;;;;;;7.93;3.15;;;13.70;99.90;;;;;;5112479;28;20516;-59
2024/02/22 11:54:37;;;;;;;16.25;3.30;;;13.70;99.90;;;;;;5090253;28;20518;-61
2024/02/22 11:57:04;;;;;;;12.30;3.05;;;13.70;99.90;;;;;;5103590;28;20071;-59
2024/02/22 11:59:31;;;;;;;14.68;3.53;;;13.60;99.90;;;;;;5100369;28;20096;-60
2024/02/22 12:02:01;;;;;;;12.32;2.97;;;13.60;99.90;;;;;;5093791;28;20113;-59
2024/02/22 12:04:32;;;;;;;9.85;3.25;;;13.60;99.90;;;;;;5106421;28;20072;-61
2024/02/22 12:07:02;;;;;;;12.27;3.22;;;13.70;99.90;;;;;;5103131;28;20151;-60
2024/02/22 12:09:30;;;;;;;10.43;3.22;;;13.70;99.90;;;;;;5090077;28;20076;-60
2024/02/22 12:11:57;;;;;;;17.60;3.72;;;13.70;99.90;;;;;;5091624;28;20065;-60
2024/02/22 12:14:24;;;;;;;17.92;3.72;;;13.70;99.90;;;;;;5108818;28;20064;-60
2024/02/22 12:16:50;;;;;;;12.18;3.28;;;13.60;99.90;;;;;;5109058;28;20080;-60
2024/02/22 12:19:17;;;;;;;13.77;3.38;;;13.60;99.90;;;;;;5108228;28;20550;-60
2024/02/22 12:21:46;;;;;;;14.23;4.03;;;13.60;99.90;;;;;;5094553;28;20056;-61
2024/02/22 12:24:13;;;;;;;13.05;3.28;;;13.60;99.90;;;;;;5104110;28;20095;-60
2024/02/22 12:26:39;;;;;;;13.85;3.63;;;13.60;99.90;;;;;;5089773;28;20081;-60
2024/02/22 12:29:08;;;;;;;16.08;3.70;;;13.50;99.90;;;;;;5087972;28;20133;-60
2024/02/22 12:31:35;;;;;;;9.48;3.20;;;13.50;99.90;;;;;;5094094;28;20076;-60
2024/02/22 12:34:01;;;;;;;7.97;2.75;;;13.50;99.90;;;;;;5107955;28;20575;-60
2024/02/22 12:36:28;;;;;;;12.57;3.17;;;13.50;99.90;;;;;;5109633;28;20067;-59
2024/02/22 12:38:55;;;;;;;6.25;2.67;;;13.40;99.90;;;;;;5100107;28;20096;-59
2024/02/22 12:41:21;;;;;;;8.57;3.03;;;13.30;99.90;;;;;;5089060;28;20080;-59
2024/02/22 12:43:49;;;;;;;12.05;2.80;;;13.30;99.90;;;;;;5089515;28;20103;-59